Time;durP1;ratioP1;P1;durP2;ratioP2;P2;SDS_P1;SDS_P2;PMS_P1;PMS_P2;Temp;Humidity;BMP_temperature;BMP_pressure;BME280_temperature;BME280_humidity;BME280_pressure;Samples;Min_cycle;Max_cycle;Signal;HPM_P1;HPM_P2
2021/12/11 00:01:51;;;;;;;7.17;3.62;;;;;;;7.85;100.00;101153.77;1670740;84;21173;-66
2021/12/11 00:04:22;;;;;;;8.00;3.87;;;;;;;7.86;100.00;101154.91;1653259;84;21117;-62
2021/12/11 00:06:52;;;;;;;;;;;;;;;7.97;100.00;101172.89;1647778;85;21370;-61
2021/12/11 00:09:31;;;;;;;7.90;4.12;;;;;;;7.90;100.00;101157.55;1644375;85;20208;-61
2021/12/11 00:12:09;;;;;;;7.03;3.22;;;;;;;7.84;100.00;101162.03;1644809;85;21074;-65
2021/12/11 00:14:39;;;;;;;9.45;3.83;;;;;;;7.82;100.00;101157.45;1644607;85;21161;-62
2021/12/11 00:17:06;;;;;;;6.97;3.55;;;;;;;7.75;100.00;101162.39;1644516;85;21552;-61
2021/12/11 00:19:37;;;;;;;7.70;2.50;;;;;;;7.73;100.00;101157.84;1643491;85;21061;-62
2021/12/11 00:22:14;;;;;;;6.12;2.87;;;;;;;7.81;100.00;101158.42;1644336;85;21815;-63
2021/12/11 00:24:41;;;;;;;8.00;2.90;;;;;;;7.82;100.00;101149.66;1642036;85;21058;-62
2021/12/11 00:27:12;;;;;;;5.70;2.80;;;;;;;7.87;100.00;101159.61;1645450;85;21144;-61
2021/12/11 00:29:40;;;;;;;7.00;2.87;;;;;;;7.89;100.00;101148.63;1645580;85;21016;-63
2021/12/11 00:32:11;;;;;;;7.10;2.80;;;;;;;7.96;100.00;101137.52;1645188;85;21113;-61
2021/12/11 00:34:43;;;;;;;7.72;3.08;;;;;;;7.99;100.00;101148.08;1644839;85;20939;-61
2021/12/11 00:37:12;;;;;;;7.20;2.90;;;;;;;7.99;100.00;101156.70;1645401;85;20915;-60
2021/12/11 00:39:51;;;;;;;7.72;3.17;;;;;;;7.92;100.00;101158.23;1644246;85;21135;-60
2021/12/11 00:42:22;;;;;;;7.10;2.85;;;;;;;8.01;100.00;101146.98;1665228;84;21003;-60
2021/12/11 00:44:53;;;;;;;6.87;2.92;;;;;;;7.97;100.00;101154.72;1664273;84;21015;-61
2021/12/11 00:47:27;;;;;;;8.65;2.95;;;;;;;7.63;100.00;101150.55;1663378;84;21481;-61
2021/12/11 00:50:07;;;;;;;5.92;3.00;;;;;;;7.75;100.00;101148.59;1664584;84;21009;-60
2021/12/11 00:52:44;;;;;;;9.60;3.77;;;;;;;7.95;100.00;101152.73;1664707;84;21752;-60
2021/12/11 00:55:24;;;;;;;6.80;3.02;;;;;;;8.17;100.00;101142.45;1664335;84;21426;-62
2021/12/11 00:58:13;;;;;;;7.17;2.98;;;;;;;7.92;100.00;101143.96;1665520;84;20955;-61
2021/12/11 01:01:00;;;;;;;7.28;3.58;;;;;;;7.77;100.00;101141.50;1663984;84;20963;-62
2021/12/11 01:03:38;;;;;;;7.70;3.22;;;;;;;7.92;100.00;101145.75;1666965;83;20998;-62
2021/12/11 01:06:13;;;;;;;7.90;3.67;;;;;;;7.88;100.00;101147.81;1675391;85;21142;-61
2021/12/11 01:08:47;;;;;;;8.38;3.75;;;;;;;7.10;100.00;101148.97;1677153;83;21022;-61
2021/12/11 01:11:23;;;;;;;7.65;4.15;;;;;;;6.98;100.00;101158.67;1676608;84;20999;-60
2021/12/11 01:14:15;;;;;;;8.80;3.37;;;;;;;6.80;100.00;101158.53;1676700;83;20989;-60
2021/12/11 01:16:30;;;;;;;10.85;4.37;;;;;;;6.90;100.00;101159.36;1674670;83;21136;-61
2021/12/11 01:19:00;;;;;;;10.45;4.80;;;;;;;7.00;100.00;101151.56;1677095;83;21111;-61
2021/12/11 01:22:22;;;;;;;8.43;4.00;;;;;;;6.86;100.00;101158.45;1675538;85;20994;-62
2021/12/11 01:24:11;;;;;;;7.95;3.85;;;;;;;6.89;100.00;101158.99;1659730;83;21122;-61
2021/12/11 01:26:44;;;;;;;8.33;3.83;;;;;;;6.82;100.00;101155.34;1676438;85;21071;-61
2021/12/11 01:29:11;;;;;;;8.85;3.90;;;;;;;6.72;100.00;101155.80;1673886;85;21489;-65
2021/12/11 01:31:39;;;;;;;10.98;4.85;;;;;;;6.82;100.00;101171.70;1676401;85;22559;-62
2021/12/11 01:34:07;;;;;;;9.80;3.98;;;;;;;7.05;100.00;101154.09;1677046;83;21054;-60
2021/12/11 01:36:35;;;;;;;8.28;4.12;;;;;;;6.99;100.00;101162.41;1679642;84;21022;-60
2021/12/11 01:39:07;;;;;;;8.18;3.65;;;;;;;6.83;100.00;101155.67;1676382;83;21272;-66
2021/12/11 01:41:35;;;;;;;9.13;5.12;;;;;;;6.79;100.00;101160.31;1676379;85;21135;-61
2021/12/11 01:44:07;;;;;;;9.65;3.75;;;;;;;6.84;100.00;101174.14;1675992;85;21454;-62
2021/12/11 01:46:35;;;;;;;6.28;3.45;;;;;;;6.74;100.00;101175.91;1676535;85;21156;-60
2021/12/11 01:49:07;;;;;;;8.28;4.15;;;;;;;6.66;100.00;101177.88;1675403;85;21018;-66
2021/12/11 01:51:59;;;;;;;8.93;3.65;;;;;;;6.84;100.00;101168.96;1677567;83;21080;-61
2021/12/11 01:54:31;;;;;;;8.45;4.15;;;;;;;6.77;100.00;101170.45;1676391;85;21037;-61
2021/12/11 01:57:03;;;;;;;6.35;3.60;;;;;;;6.79;100.00;101167.27;1676445;83;21168;-66
2021/12/11 01:59:33;;;;;;;8.35;3.58;;;;;;;6.68;100.00;101171.28;1676415;85;21358;-61
2021/12/11 02:02:13;;;;;;;8.15;3.90;;;;;;;6.85;100.00;101180.95;1675753;84;21183;-62
2021/12/11 02:04:46;;;;;;;8.80;4.08;;;;;;;6.86;100.00;101185.66;1675313;83;20937;-65
2021/12/11 02:07:20;;;;;;;6.53;4.28;;;;;;;6.73;100.00;101195.00;1665841;83;21425;-60
2021/12/11 02:09:56;;;;;;;11.43;4.20;;;;;;;6.80;100.00;101172.78;1664220;84;21162;-60
2021/12/11 02:12:29;;;;;;;9.43;4.70;;;;;;;6.99;100.00;101174.08;1662585;84;20911;-66
2021/12/11 02:14:54;;;;;;;8.65;4.10;;;;;;;7.14;100.00;101183.55;1662755;84;21070;-60
2021/12/11 02:17:31;;;;;;;8.85;3.92;;;;;;;7.03;100.00;101179.33;1664032;84;21020;-63
2021/12/11 02:19:59;;;;;;;8.20;4.10;;;;;;;7.04;100.00;101180.14;1660333;84;20968;-65
2021/12/11 02:22:31;;;;;;;10.90;4.67;;;;;;;7.13;100.00;101185.00;1667625;84;22543;-61
2021/12/11 02:24:59;;;;;;;;;;;;;;;7.56;100.00;101184.02;1666628;84;20929;-60
2021/12/11 02:27:31;;;;;;;8.43;3.62;;;;;;;7.75;100.00;101177.15;1665352;84;20153;-61
2021/12/11 02:30:22;;;;;;;7.70;4.35;;;;;;;7.16;100.00;101184.25;1664342;84;21076;-61
2021/12/11 02:33:07;;;;;;;13.38;5.03;;;;;;;7.18;100.00;101187.50;1664136;84;21039;-62
2021/12/11 02:35:58;;;;;;;8.50;4.00;;;;;;;7.14;100.00;101193.92;1663508;84;21159;-62
2021/12/11 02:38:39;;;;;;;8.15;3.98;;;;;;;7.17;100.00;101195.44;1664567;84;21169;-60
2021/12/11 02:41:22;;;;;;;7.45;4.53;;;;;;;6.86;100.00;101189.55;1662722;84;21291;-60
2021/12/11 02:43:57;;;;;;;8.08;4.08;;;;;;;6.85;100.00;101193.09;1664190;84;21059;-60
2021/12/11 02:46:40;;;;;;;7.10;3.72;;;;;;;6.84;100.00;101187.11;1664885;84;21018;-65
2021/12/11 02:49:25;;;;;;;8.38;3.60;;;;;;;7.17;100.00;101208.40;1662576;84;21144;-59
2021/12/11 02:52:06;;;;;;;8.15;4.12;;;;;;;6.64;100.00;101206.19;1663436;84;20902;-63
2021/12/11 02:54:50;;;;;;;10.25;4.35;;;;;;;6.45;100.00;101207.78;1664219;84;21638;-59
2021/12/11 02:57:36;;;;;;;7.33;4.37;;;;;;;6.54;100.00;101199.20;1663915;84;21053;-60
2021/12/11 03:00:20;;;;;;;7.50;3.70;;;;;;;6.41;100.00;101210.30;1663747;84;21089;-60
2021/12/11 03:02:59;;;;;;;8.90;4.30;;;;;;;6.13;100.00;101201.95;1664825;84;21104;-60
2021/12/11 03:05:22;;;;;;;;;;;;;;;6.32;100.00;101202.00;1664770;84;21525;-67
2021/12/11 03:07:52;;;;;;;9.28;4.33;;;;;;;6.21;100.00;101195.19;1663870;86;20271;-60
2021/12/11 03:10:21;;;;;;;9.95;4.05;;;;;;;6.29;100.00;101194.05;1668073;84;21053;-60
2021/12/11 03:12:48;;;;;;;7.97;3.90;;;;;;;6.35;100.00;101197.86;1664536;84;21105;-63
2021/12/11 03:15:16;;;;;;;6.22;3.55;;;;;;;6.29;100.00;101195.82;1663664;84;22618;-66
2021/12/11 03:17:44;;;;;;;7.22;3.50;;;;;;;6.43;100.00;101193.31;1664358;84;21125;-61
2021/12/11 03:20:13;;;;;;;8.80;4.42;;;;;;;6.42;100.00;101204.16;1664674;84;21524;-61
2021/12/11 03:22:43;;;;;;;6.90;3.60;;;;;;;6.54;100.00;101206.97;1664522;84;21120;-62
2021/12/11 03:25:13;;;;;;;8.75;4.00;;;;;;;6.47;100.00;101217.52;1663570;84;21062;-62
2021/12/11 03:27:40;;;;;;;8.48;4.10;;;;;;;6.33;100.00;101194.60;1664835;84;22501;-61
2021/12/11 03:30:12;;;;;;;8.30;3.35;;;;;;;6.41;100.00;101195.23;1664447;84;20974;-61
2021/12/11 03:32:39;;;;;;;9.98;3.85;;;;;;;6.50;100.00;101190.06;1663260;84;21018;-66
2021/12/11 03:35:07;;;;;;;11.10;5.62;;;;;;;6.46;100.00;101192.58;1664045;84;21025;-64
2021/12/11 03:37:35;;;;;;;9.25;4.30;;;;;;;6.53;100.00;101192.39;1663702;84;21082;-61
2021/12/11 03:40:03;;;;;;;7.97;3.98;;;;;;;6.49;100.00;101206.56;1664088;84;22346;-60
2021/12/11 03:42:34;;;;;;;8.20;4.35;;;;;;;6.42;100.00;101204.63;1663516;84;22293;-69
2021/12/11 03:45:03;;;;;;;7.67;3.58;;;;;;;6.45;100.00;101209.08;1664121;84;21782;-65
2021/12/11 03:47:34;;;;;;;7.60;3.42;;;;;;;6.36;100.00;101208.55;1663736;84;21065;-61
2021/12/11 03:50:01;;;;;;;7.40;3.62;;;;;;;6.48;100.00;101206.23;1664182;84;21025;-61
2021/12/11 03:52:29;;;;;;;13.28;4.70;;;;;;;6.45;100.00;101207.78;1663593;84;21166;-66
2021/12/11 03:54:57;;;;;;;8.50;3.90;;;;;;;6.47;100.00;101214.11;1663667;84;21101;-60
2021/12/11 03:57:26;;;;;;;7.35;4.25;;;;;;;6.55;100.00;101215.55;1661197;84;21030;-61
2021/12/11 03:59:53;;;;;;;9.43;4.35;;;;;;;6.34;100.00;101215.17;1663871;84;21129;-61
2021/12/11 04:02:25;;;;;;;7.80;3.60;;;;;;;6.46;100.00;101209.89;1722575;78;20944;-61
2021/12/11 04:04:57;;;;;;;8.35;4.50;;;;;;;6.02;100.00;101217.09;1723810;81;21547;-61
2021/12/11 04:07:28;;;;;;;8.53;4.30;;;;;;;6.19;100.00;101216.48;1724242;81;21131;-63
2021/12/11 04:09:55;;;;;;;9.03;4.33;;;;;;;6.21;100.00;101204.70;1723049;81;21518;-63
2021/12/11 04:12:23;;;;;;;9.33;4.37;;;;;;;6.26;100.00;101223.27;1725607;81;21020;-63
2021/12/11 04:14:52;;;;;;;8.70;3.52;;;;;;;6.31;100.00;101208.95;1724143;81;22095;-62
2021/12/11 04:17:22;;;;;;;9.28;4.00;;;;;;;6.24;100.00;101222.56;1726786;81;21123;-63
2021/12/11 04:19:54;;;;;;;8.40;4.47;;;;;;;6.20;100.00;101207.77;1725780;81;21628;-61
2021/12/11 04:22:22;;;;;;;9.15;4.15;;;;;;;6.21;100.00;101212.46;1723992;81;21042;-63
2021/12/11 04:24:49;;;;;;;8.53;4.55;;;;;;;6.32;100.00;101214.95;1726336;81;21416;-62
2021/12/11 04:27:18;;;;;;;10.90;5.35;;;;;;;6.40;100.00;101212.52;1731755;82;21444;-61
2021/12/11 04:29:47;;;;;;;11.25;3.95;;;;;;;6.30;100.00;101222.86;1728081;82;21833;-62
2021/12/11 04:32:15;;;;;;;13.13;5.33;;;;;;;6.52;100.00;101219.73;1731964;81;21059;-67
2021/12/11 04:34:43;;;;;;;9.03;4.58;;;;;;;6.44;100.00;101210.03;1732352;81;21143;-64
2021/12/11 04:37:16;;;;;;;9.58;5.03;;;;;;;6.51;100.00;101224.55;1732219;82;21095;-62
2021/12/11 04:39:46;;;;;;;10.85;4.72;;;;;;;6.47;100.00;101208.45;1731376;81;21020;-62
2021/12/11 04:42:28;;;;;;;10.50;5.22;;;;;;;6.36;100.00;101237.52;1731517;82;21818;-67
2021/12/11 04:44:47;;;;;;;12.03;5.25;;;;;;;6.48;100.00;101232.12;1719122;82;21517;-64
2021/12/11 04:47:30;;;;;;;10.63;5.25;;;;;;;6.32;100.00;101218.84;1732199;82;21297;-62
2021/12/11 04:49:55;;;;;;;10.63;5.22;;;;;;;6.04;100.00;101205.66;1730509;81;21095;-68
2021/12/11 04:52:33;;;;;;;11.35;4.80;;;;;;;6.02;100.00;101201.11;1728458;81;20885;-63
2021/12/11 04:55:04;;;;;;;9.43;5.08;;;;;;;6.03;100.00;101205.81;1727102;82;21104;-61
2021/12/11 05:00:16;;;;;;;6.78;3.70;;;;;;;6.15;100.00;101207.34;1732012;81;21004;-60
2021/12/11 05:10:21;;;;;;;8.03;4.45;;;;;;;6.30;100.00;101198.74;1731537;81;21592;-61
2021/12/11 05:12:49;;;;;;;7.05;4.22;;;;;;;6.29;100.00;101201.00;1731574;82;21562;-61
2021/12/11 05:15:26;;;;;;;7.17;3.65;;;;;;;6.14;100.00;101203.13;1732445;81;20972;-68
2021/12/11 05:17:53;;;;;;;6.75;3.83;;;;;;;6.08;100.00;101210.11;1732121;81;21012;-67
2021/12/11 05:20:22;;;;;;;6.25;3.65;;;;;;;6.14;100.00;101208.75;1732083;81;21104;-61
2021/12/11 05:22:49;;;;;;;6.12;4.10;;;;;;;5.91;100.00;101215.40;1732343;81;20979;-61
2021/12/11 05:25:17;;;;;;;7.42;3.87;;;;;;;6.03;100.00;101218.75;1732597;81;21473;-66
2021/12/11 05:27:45;;;;;;;7.30;3.95;;;;;;;6.11;100.00;101231.04;1732015;82;21194;-62
2021/12/11 05:30:19;;;;;;;7.08;3.98;;;;;;;5.99;100.00;101229.83;1730649;82;20996;-61
2021/12/11 05:32:48;;;;;;;7.83;4.20;;;;;;;6.15;100.00;101196.98;1732845;81;21882;-61
2021/12/11 05:35:16;;;;;;;10.60;5.35;;;;;;;6.09;100.00;101207.38;1731521;82;20929;-67
2021/12/11 05:37:44;;;;;;;7.00;4.22;;;;;;;5.80;100.00;101205.95;1731963;82;21103;-61
2021/12/11 05:40:14;;;;;;;8.73;4.17;;;;;;;5.95;100.00;101216.81;1731998;81;21458;-61
2021/12/11 05:42:41;;;;;;;5.53;3.42;;;;;;;5.99;100.00;101213.48;1732302;81;21138;-60
2021/12/11 05:45:09;;;;;;;7.45;4.00;;;;;;;6.14;100.00;101219.95;1732076;81;23142;-64
2021/12/11 05:47:36;;;;;;;6.90;3.98;;;;;;;5.59;100.00;101221.47;1731569;82;21015;-60
2021/12/11 05:50:08;;;;;;;7.53;3.85;;;;;;;5.79;100.00;101218.98;1731875;82;21071;-66
2021/12/11 05:52:36;;;;;;;6.95;3.65;;;;;;;5.79;100.00;101221.58;1732539;81;22119;-61
2021/12/11 05:55:07;;;;;;;6.03;3.35;;;;;;;5.77;100.00;101237.72;1731828;82;20997;-67
2021/12/11 05:57:36;;;;;;;5.75;2.67;;;;;;;5.78;100.00;101229.00;1726057;82;21086;-60
2021/12/11 06:00:09;;;;;;;7.55;3.92;;;;;;;5.88;100.00;101226.00;1732244;81;20949;-62
2021/12/11 06:02:36;;;;;;;4.70;2.85;;;;;;;5.96;100.00;101225.39;1738014;82;21195;-60
2021/12/11 06:05:03;;;;;;;5.42;3.37;;;;;;;5.83;100.00;101239.33;1739342;82;21567;-65
2021/12/11 06:07:30;;;;;;;7.28;3.75;;;;;;;5.90;100.00;101240.09;1740090;82;22358;-62
2021/12/11 06:10:03;;;;;;;5.75;3.75;;;;;;;5.92;100.00;101244.23;1740114;82;21205;-60
2021/12/11 06:12:31;;;;;;;6.28;4.03;;;;;;;5.77;100.00;101248.88;1739746;82;21062;-60
2021/12/11 06:14:58;;;;;;;5.37;3.42;;;;;;;5.67;100.00;101251.88;1739642;82;20976;-67
2021/12/11 06:17:29;;;;;;;5.87;3.12;;;;;;;5.67;100.00;101252.35;1739980;82;21066;-61
2021/12/11 06:19:57;;;;;;;7.85;3.87;;;;;;;5.92;100.00;101252.44;1740288;81;21003;-61
2021/12/11 06:22:32;;;;;;;6.58;3.25;;;;;;;6.08;100.00;101251.05;1739584;82;21142;-61
2021/12/11 06:25:03;;;;;;;9.03;4.17;;;;;;;6.15;100.00;101251.36;1739321;82;20952;-66
2021/12/11 06:27:30;;;;;;;6.00;3.92;;;;;;;5.96;100.00;101263.73;1739959;81;21159;-61
2021/12/11 06:29:58;;;;;;;6.33;3.83;;;;;;;5.67;100.00;101264.81;1739932;82;21051;-61
2021/12/11 06:32:25;;;;;;;8.35;4.15;;;;;;;5.67;100.00;101260.92;1739138;82;21569;-62
2021/12/11 06:34:53;;;;;;;6.40;4.17;;;;;;;5.83;100.00;101261.32;1739277;82;21156;-62
2021/12/11 06:37:21;;;;;;;7.28;4.12;;;;;;;5.82;100.00;101260.95;1739996;82;20991;-62
2021/12/11 06:39:50;;;;;;;8.10;5.08;;;;;;;5.68;100.00;101249.63;1740097;82;20924;-62
2021/12/11 06:42:17;;;;;;;7.45;4.58;;;;;;;5.75;100.00;101256.41;1739110;82;20948;-63
2021/12/11 06:44:46;;;;;;;8.40;5.03;;;;;;;5.84;100.00;101258.26;1739014;82;21185;-69
2021/12/11 06:47:14;;;;;;;9.58;4.80;;;;;;;5.80;100.00;101242.64;1739426;81;21219;-62
2021/12/11 06:49:42;;;;;;;8.65;5.20;;;;;;;5.83;100.00;101244.95;1733981;82;21031;-63
2021/12/11 06:52:13;;;;;;;9.38;5.90;;;;;;;5.99;100.00;101240.66;1730221;82;20996;-66
2021/12/11 06:54:40;;;;;;;8.18;5.33;;;;;;;6.15;100.00;101242.30;1730031;82;21169;-63
2021/12/11 06:57:08;;;;;;;8.08;4.95;;;;;;;5.94;100.00;101251.38;1723520;82;20996;-63
2021/12/11 06:59:36;;;;;;;8.28;5.12;;;;;;;5.88;100.00;101247.18;1737022;81;21196;-67
2021/12/11 07:02:05;;;;;;;7.33;5.35;;;;;;;5.89;100.00;101237.16;1734694;82;20957;-65
2021/12/11 07:04:33;;;;;;;8.48;5.15;;;;;;;5.99;100.00;101240.66;1728969;82;22589;-65
2021/12/11 07:07:00;;;;;;;7.25;5.10;;;;;;;5.97;100.00;101242.06;1731931;81;21003;-70
2021/12/11 07:09:27;;;;;;;8.25;5.25;;;;;;;5.64;100.00;101232.72;1725724;82;21127;-66
2021/12/11 07:11:56;;;;;;;9.10;5.53;;;;;;;5.86;100.00;101233.87;1723228;81;21185;-71
2021/12/11 07:14:25;;;;;;;7.90;5.87;;;;;;;6.09;100.00;101241.03;1725775;82;21482;-66
2021/12/11 07:16:53;;;;;;;7.78;5.92;;;;;;;6.06;100.00;101243.05;1720050;81;21532;-64
2021/12/11 07:19:21;;;;;;;8.73;5.65;;;;;;;6.16;100.00;101245.70;1723545;81;21012;-65
2021/12/11 07:21:50;;;;;;;8.85;6.03;;;;;;;5.98;100.00;101270.06;1720987;81;21080;-67
2021/12/11 07:24:21;;;;;;;14.07;5.87;;;;;;;6.20;100.00;101276.38;1720568;82;21990;-64
2021/12/11 07:26:50;;;;;;;7.72;5.80;;;;;;;6.13;100.00;101266.19;1720762;82;20996;-66
2021/12/11 07:29:19;;;;;;;9.48;7.08;;;;;;;6.12;100.00;101272.80;1724111;81;21079;-63
2021/12/11 07:31:47;;;;;;;9.23;7.00;;;;;;;6.04;100.00;101285.91;1723639;82;21541;-65
2021/12/11 07:34:15;;;;;;;10.15;5.67;;;;;;;6.08;100.00;101278.70;1717495;81;21090;-64
2021/12/11 07:36:42;;;;;;;7.22;5.22;;;;;;;5.99;100.00;101278.19;1718789;81;21177;-70
2021/12/11 07:39:12;;;;;;;6.95;5.20;;;;;;;6.00;100.00;101273.35;1724234;82;20992;-65
2021/12/11 07:41:39;;;;;;;10.95;5.65;;;;;;;6.11;100.00;101264.69;1726331;81;21014;-64
2021/12/11 07:44:06;;;;;;;9.23;6.53;;;;;;;6.23;100.00;101254.59;1726724;81;20944;-66
2021/12/11 07:46:33;;;;;;;8.05;5.95;;;;;;;6.37;100.00;101253.42;1732812;81;21478;-66
2021/12/11 07:49:02;;;;;;;9.65;5.85;;;;;;;6.33;100.00;101260.16;1729372;81;21152;-67
2021/12/11 07:51:30;;;;;;;8.28;5.70;;;;;;;6.21;100.00;101273.30;1731099;81;21302;-64
2021/12/11 07:53:57;;;;;;;10.88;6.62;;;;;;;6.13;100.00;101246.77;1733406;81;20932;-65
2021/12/11 07:56:24;;;;;;;8.33;5.97;;;;;;;6.35;100.00;101239.30;1734043;81;21466;-69
2021/12/11 07:58:54;;;;;;;7.92;5.45;;;;;;;6.33;100.00;101234.73;1725602;81;21015;-75
2021/12/11 08:01:21;;;;;;;10.13;5.75;;;;;;;6.18;100.00;101252.39;1731673;82;21295;-66
2021/12/11 08:03:48;;;;;;;8.98;5.42;;;;;;;6.19;100.00;101245.45;1727212;81;20905;-64
2021/12/11 08:06:16;;;;;;;9.55;6.17;;;;;;;6.11;100.00;101253.05;1730409;81;21021;-70
2021/12/11 08:08:43;;;;;;;9.98;5.80;;;;;;;6.07;100.00;101253.77;1728010;81;21099;-68
2021/12/11 08:11:13;;;;;;;9.35;4.70;;;;;;;6.19;100.00;101259.69;1726568;81;21015;-67
2021/12/11 08:13:43;;;;;;;;;;;;;;;6.40;100.00;101257.84;1734399;81;21163;-66
2021/12/11 08:16:12;;;;;;;6.95;4.80;;;;;;;6.25;100.00;101260.44;1731521;82;20527;-68
2021/12/11 08:18:40;;;;;;;7.05;5.10;;;;;;;6.11;100.00;101250.45;1731678;82;21054;-74
2021/12/11 08:21:07;;;;;;;7.37;5.45;;;;;;;6.06;100.00;101240.02;1731183;82;20952;-67
2021/12/11 08:23:42;;;;;;;7.25;5.03;;;;;;;6.02;100.00;101242.52;1724309;82;21072;-66
2021/12/11 08:26:03;;;;;;;7.85;5.65;;;;;;;5.97;100.00;101239.48;1729903;82;21125;-66
2021/12/11 08:28:31;;;;;;;9.00;4.97;;;;;;;5.97;100.00;101233.48;1726838;81;21004;-64
2021/12/11 08:30:59;;;;;;;6.83;5.03;;;;;;;6.08;100.00;101221.28;1731528;81;21075;-64
2021/12/11 08:33:26;;;;;;;7.15;5.33;;;;;;;6.13;100.00;101191.11;1729091;82;22017;-65
2021/12/11 08:35:54;;;;;;;9.13;5.62;;;;;;;6.14;100.00;101180.28;1729046;81;21475;-67
2021/12/11 08:38:21;;;;;;;6.70;5.28;;;;;;;6.30;100.00;101193.56;1731725;81;22095;-66
2021/12/11 08:40:52;;;;;;;7.60;5.33;;;;;;;6.55;100.00;101200.86;1728877;81;21086;-73
2021/12/11 08:43:20;;;;;;;9.50;5.08;;;;;;;6.45;100.00;101197.42;1720132;82;21150;-65
2021/12/11 08:45:59;;;;;;;8.60;5.17;;;;;;;6.39;100.00;101201.83;1720764;82;20999;-64
2021/12/11 08:48:21;;;;;;;8.33;5.25;;;;;;;6.27;100.00;101196.41;1717987;82;20969;-71
2021/12/11 08:50:51;;;;;;;7.47;4.90;;;;;;;6.48;100.00;101197.16;1717822;81;21813;-71
2021/12/11 08:53:18;;;;;;;7.00;4.30;;;;;;;6.29;100.00;101201.81;1726183;81;21087;-65
2021/12/11 08:55:49;;;;;;;9.78;6.67;;;;;;;6.36;100.00;101187.02;1732667;81;20960;-65
2021/12/11 08:58:19;;;;;;;19.73;11.75;;;;;;;6.19;100.00;101197.55;1730859;81;21491;-67
2021/12/11 09:01:00;;;;;;;9.63;6.58;;;;;;;6.19;100.00;101214.38;1729630;82;21134;-67
2021/12/11 09:03:38;;;;;;;15.20;9.00;;;;;;;6.15;100.00;101213.81;1729504;81;22176;-65
2021/12/11 09:06:23;;;;;;;8.75;6.25;;;;;;;6.26;100.00;101210.31;1732696;81;22464;-67
2021/12/11 09:09:00;;;;;;;8.68;5.28;;;;;;;6.32;100.00;101218.36;1721696;81;21577;-68
2021/12/11 09:11:36;;;;;;;7.47;4.83;;;;;;;6.32;100.00;101218.84;1730428;81;21428;-68
2021/12/11 09:14:17;;;;;;;7.95;5.40;;;;;;;6.30;100.00;101211.69;1725657;81;21548;-69
2021/12/11 09:16:49;;;;;;;8.45;5.95;;;;;;;6.32;100.00;101214.95;1731131;81;25168;-69
2021/12/11 09:19:27;;;;;;;11.48;6.87;;;;;;;6.25;100.00;101215.97;1728722;81;22194;-67
2021/12/11 09:22:02;;;;;;;10.10;8.30;;;;;;;6.17;100.00;101218.85;1716207;81;21079;-70
2021/12/11 09:24:42;;;;;;;12.05;7.50;;;;;;;6.18;100.00;101225.69;1717594;81;21017;-70
2021/12/11 09:27:21;;;;;;;7.70;5.95;;;;;;;6.13;100.00;101223.47;1719072;81;21187;-68
2021/12/11 09:29:59;;;;;;;9.05;6.22;;;;;;;6.37;100.00;101226.23;1714466;81;22219;-69
2021/12/11 09:32:31;;;;;;;10.25;7.03;;;;;;;6.61;100.00;101217.63;1726959;81;21554;-72
2021/12/11 09:35:06;;;;;;;10.93;6.95;;;;;;;6.74;100.00;101227.28;1731216;82;21033;-70
2021/12/11 09:37:34;;;;;;;12.18;7.22;;;;;;;6.60;100.00;101234.61;1725576;81;21361;-69
2021/12/11 09:40:16;;;;;;;20.00;17.85;;;;;;;6.56;100.00;101226.28;1732483;81;21533;-70
2021/12/11 09:42:42;;;;;;;8.10;6.10;;;;;;;6.48;100.00;101218.36;1723542;81;21132;-69
2021/12/11 09:45:17;;;;;;;15.45;10.58;;;;;;;6.74;100.00;101196.63;1732223;81;21437;-69
2021/12/11 09:47:51;;;;;;;23.47;13.28;;;;;;;6.70;100.00;101191.38;1720120;81;20972;-69
2021/12/11 09:50:22;;;;;;;24.37;20.00;;;;;;;6.79;100.00;101184.11;1721203;81;21153;-69
2021/12/11 09:52:49;;;;;;;16.48;14.80;;;;;;;6.79;100.00;101175.05;1723498;81;21142;-70
2021/12/11 09:55:24;;;;;;;9.88;7.70;;;;;;;6.87;100.00;101185.54;1720301;81;22098;-71
2021/12/11 09:57:56;;;;;;;14.85;12.23;;;;;;;6.79;100.00;101188.00;1726529;81;21021;-70
2021/12/11 10:00:37;;;;;;;14.13;12.80;;;;;;;6.49;100.00;101190.20;1728762;82;21149;-70
2021/12/11 10:03:05;;;;;;;83.78;59.70;;;;;;;6.43;100.00;101178.59;1727227;82;25635;-69
2021/12/11 10:05:43;;;;;;;40.65;29.40;;;;;;;6.55;100.00;101211.22;1722916;81;21039;-69
2021/12/11 10:08:35;;;;;;;13.18;11.73;;;;;;;6.49;100.00;101199.27;1720432;82;21126;-68
2021/12/11 10:10:54;;;;;;;17.73;13.88;;;;;;;6.40;100.00;101185.80;1709068;81;20980;-67
2021/12/11 10:13:22;;;;;;;21.10;18.65;;;;;;;6.64;100.00;101173.80;1723057;81;21110;-68
2021/12/11 10:15:49;;;;;;;13.22;11.88;;;;;;;6.43;100.00;101167.41;1723585;81;21482;-69
2021/12/11 10:18:19;;;;;;;15.35;13.70;;;;;;;6.61;100.00;101180.55;1724662;81;22025;-68
2021/12/11 10:20:57;;;;;;;15.30;13.75;;;;;;;6.77;100.00;101163.98;1719566;81;21498;-67
2021/12/11 10:23:27;;;;;;;13.93;10.85;;;;;;;6.79;100.00;101172.45;1723804;81;20972;-70
2021/12/11 10:25:56;;;;;;;;;;;;;;;6.98;100.00;101158.67;1723463;81;21142;-66
2021/12/11 10:28:27;;;;;;;12.20;9.68;;;;;;;7.10;100.00;101156.27;1727142;81;20488;-68
2021/12/11 10:31:05;;;;;;;6.92;5.28;;;;;;;7.24;100.00;101155.03;1723282;81;21024;-68
2021/12/11 10:33:32;;;;;;;7.15;5.17;;;;;;;7.43;100.00;101165.37;1724265;81;22394;-67
2021/12/11 10:36:07;;;;;;;8.78;5.85;;;;;;;7.46;100.00;101148.68;1723018;81;21022;-70
2021/12/11 10:38:34;;;;;;;9.05;5.95;;;;;;;7.44;100.00;101166.18;1726344;81;21027;-68
2021/12/11 10:41:03;;;;;;;9.50;5.58;;;;;;;7.29;100.00;101148.94;1723555;81;21024;-69
2021/12/11 10:43:35;;;;;;;7.80;5.10;;;;;;;7.44;100.00;101157.10;1722641;81;21581;-67
2021/12/11 10:46:03;;;;;;;8.03;6.50;;;;;;;7.77;100.00;101147.99;1728347;81;21147;-66
2021/12/11 10:48:33;;;;;;;12.55;7.92;;;;;;;7.70;100.00;101143.03;1731505;81;20928;-68
2021/12/11 10:51:15;;;;;;;8.13;6.05;;;;;;;7.63;100.00;101140.66;1726323;81;21011;-69
2021/12/11 10:53:46;;;;;;;9.35;5.67;;;;;;;7.62;100.00;101142.92;1726437;81;21098;-67
2021/12/11 10:56:18;;;;;;;7.55;5.08;;;;;;;7.38;100.00;101151.98;1728872;81;21103;-71
2021/12/11 10:58:50;;;;;;;8.65;5.80;;;;;;;7.32;100.00;101191.45;1726932;81;21776;-67
2021/12/11 11:01:24;;;;;;;9.18;5.62;;;;;;;7.46;100.00;101162.95;1731832;81;21071;-66
2021/12/11 11:03:56;;;;;;;8.55;5.95;;;;;;;7.22;100.00;101155.63;1716805;81;21023;-66
2021/12/11 11:06:23;;;;;;;11.10;8.70;;;;;;;7.09;100.00;101142.16;1710622;81;21118;-70
2021/12/11 11:08:51;;;;;;;8.05;6.33;;;;;;;7.02;100.00;101154.36;1716628;82;20963;-70
2021/12/11 11:11:21;;;;;;;16.02;13.58;;;;;;;7.05;100.00;101171.43;1715791;83;21966;-67
2021/12/11 11:13:49;;;;;;;22.60;13.53;;;;;;;6.95;100.00;101170.61;1715182;81;21055;-66
2021/12/11 11:16:17;;;;;;;9.83;8.78;;;;;;;6.91;100.00;101155.80;1715626;83;20999;-70
2021/12/11 11:18:45;;;;;;;8.78;6.72;;;;;;;7.19;100.00;101159.31;1710427;81;21010;-69
2021/12/11 11:21:23;;;;;;;7.70;5.17;;;;;;;7.10;100.00;101169.71;1712350;82;21619;-68
2021/12/11 11:23:50;;;;;;;8.00;5.80;;;;;;;6.67;100.00;101133.38;1709839;81;21135;-67
2021/12/11 11:26:22;;;;;;;9.03;6.28;;;;;;;6.61;100.00;101140.39;1714485;81;21591;-70
2021/12/11 11:28:49;;;;;;;12.30;10.97;;;;;;;6.66;100.00;101154.56;1714378;81;20975;-67
2021/12/11 11:31:21;;;;;;;8.13;6.22;;;;;;;6.61;100.00;101163.70;1714045;82;22423;-66
2021/12/11 11:33:48;;;;;;;10.58;5.60;;;;;;;6.79;100.00;101169.86;1713140;81;27022;-67
2021/12/11 11:36:19;;;;;;;8.03;5.42;;;;;;;7.17;100.00;101152.17;1716177;81;21223;-69
2021/12/11 11:38:50;;;;;;;10.55;9.23;;;;;;;7.12;100.00;101150.93;1718277;81;22426;-66
2021/12/11 11:41:22;;;;;;;9.05;7.10;;;;;;;6.73;100.00;101170.39;1715146;82;21058;-65
2021/12/11 11:43:50;;;;;;;;;;;;;;;6.86;100.00;101186.95;1718734;81;20999;-64
2021/12/11 11:46:18;;;;;;;13.43;11.75;;;;;;;6.93;100.00;101198.42;1714536;83;20179;-69
2021/12/11 11:48:48;;;;;;;9.18;8.20;;;;;;;6.77;100.00;101196.37;1714791;81;21130;-65
2021/12/11 11:51:34;;;;;;;9.23;7.30;;;;;;;6.92;100.00;101205.86;1709687;81;20983;-65
2021/12/11 11:54:02;;;;;;;7.67;5.67;;;;;;;7.01;100.00;101203.77;1712424;82;21059;-70